Metar z połowy godziny Komunikat METAR ze strony awiacja.imgw.pl Metar Mil EPCE METAR EPCE 271330Z 00000KT 9999 FEW005 BKN044 02/01 Q0994 RMK 017 095 7/2=